Time;durP1;ratioP1;P1;durP2;ratioP2;P2;SDS_P1;SDS_P2;PMS_P1;PMS_P2;Temp;Humidity;BMP_temperature;BMP_pressure;BME280_temperature;BME280_humidity;BME280_pressure;Samples;Min_cycle;Max_cycle;Signal;HPM_P1;HPM_P2
2022/11/15 00:01:00;;;;;;;13.90;6.97;;;10.40;99.90;;;;;;4201549;28;20025;-61
2022/11/15 00:03:00;;;;;;;13.80;7.20;;;10.40;99.90;;;;;;4197655;28;20028;-62
2022/11/15 00:05:01;;;;;;;9.38;6.47;;;10.40;99.90;;;;;;4197416;28;20435;-62
2022/11/15 00:07:01;;;;;;;10.77;7.32;;;10.40;99.90;;;;;;4197710;28;20038;-62
2022/11/15 00:09:03;;;;;;;11.20;6.63;;;10.50;99.90;;;;;;4196951;28;20372;-61
2022/11/15 00:11:03;;;;;;;11.63;7.55;;;10.50;99.90;;;;;;4196319;28;20067;-62
2022/11/15 00:13:08;;;;;;;8.65;6.13;;;10.50;99.90;;;;;;4200763;28;20035;-62
2022/11/15 00:15:09;;;;;;;9.73;6.95;;;10.50;99.90;;;;;;4213501;28;20028;-66
2022/11/15 00:17:09;;;;;;;10.18;6.43;;;10.50;99.90;;;;;;4215762;28;20067;-62
2022/11/15 00:19:10;;;;;;;11.30;7.15;;;10.50;99.90;;;;;;4218787;28;20031;-62
2022/11/15 00:21:13;;;;;;;12.15;6.88;;;10.60;99.90;;;;;;4218219;28;20509;-62
2022/11/15 00:23:13;;;;;;;10.70;7.25;;;10.60;99.90;;;;;;4219313;28;20027;-61
2022/11/15 00:25:14;;;;;;;10.52;6.40;;;10.70;99.90;;;;;;4215402;28;20051;-62
2022/11/15 00:27:14;;;;;;;12.13;6.95;;;10.60;99.90;;;;;;4216809;28;20051;-61
2022/11/15 00:29:15;;;;;;;12.88;6.57;;;10.70;99.90;;;;;;4219758;28;20060;-61
2022/11/15 00:31:15;;;;;;;10.48;6.65;;;10.70;99.90;;;;;;4206171;28;20024;-61
2022/11/15 00:33:16;;;;;;;10.63;6.72;;;10.70;99.90;;;;;;4220673;28;20024;-62
2022/11/15 00:35:18;;;;;;;11.23;6.47;;;10.70;99.90;;;;;;4215929;28;20051;-62
2022/11/15 00:37:18;;;;;;;11.35;6.63;;;10.80;99.90;;;;;;4221792;28;20143;-62
2022/11/15 00:39:19;;;;;;;10.38;6.32;;;10.80;99.90;;;;;;4214862;28;20507;-61
2022/11/15 00:41:19;;;;;;;12.80;7.57;;;10.80;99.90;;;;;;4215567;28;20479;-62
2022/11/15 00:43:20;;;;;;;9.63;6.47;;;10.80;99.90;;;;;;4217391;28;20028;-61
2022/11/15 00:45:20;;;;;;;10.30;6.13;;;10.90;99.90;;;;;;4211146;28;20035;-62
2022/11/15 00:47:21;;;;;;;9.98;6.68;;;10.90;99.90;;;;;;4221253;28;20023;-62
2022/11/15 00:49:21;;;;;;;12.05;6.82;;;10.90;99.90;;;;;;4216477;28;20333;-61
2022/11/15 00:51:22;;;;;;;10.43;6.40;;;10.90;99.90;;;;;;4223659;28;20032;-62
2022/11/15 00:53:23;;;;;;;11.40;6.97;;;10.90;99.90;;;;;;4215872;28;20081;-61
2022/11/15 00:55:23;;;;;;;11.60;6.10;;;10.90;99.90;;;;;;4212782;28;20024;-61
2022/11/15 00:57:24;;;;;;;9.88;5.85;;;11.00;99.90;;;;;;4216231;28;20434;-62
2022/11/15 00:59:24;;;;;;;10.63;6.57;;;10.90;99.90;;;;;;4211298;28;20036;-62
2022/11/15 01:01:25;;;;;;;10.25;5.95;;;11.00;99.90;;;;;;4218303;28;20521;-62
2022/11/15 01:03:25;;;;;;;9.55;5.55;;;11.00;99.90;;;;;;4215135;28;20425;-62
2022/11/15 01:05:26;;;;;;;10.88;6.53;;;11.00;99.90;;;;;;4214230;28;20044;-62
2022/11/15 01:07:26;;;;;;;13.82;6.55;;;11.00;99.90;;;;;;4198605;28;20043;-62
2022/11/15 01:09:27;;;;;;;9.35;6.18;;;11.00;99.90;;;;;;4218611;28;20050;-61
2022/11/15 01:11:27;;;;;;;10.80;6.18;;;11.10;99.90;;;;;;4218482;28;20424;-61
2022/11/15 01:13:33;;;;;;;11.82;6.93;;;11.10;99.90;;;;;;4219283;28;20111;-61
2022/11/15 01:15:33;;;;;;;12.18;6.55;;;11.00;99.90;;;;;;4212624;28;20073;-61
2022/11/15 01:17:34;;;;;;;9.27;6.05;;;11.10;99.90;;;;;;4221853;28;20047;-62
2022/11/15 01:19:34;;;;;;;9.60;6.18;;;11.10;99.90;;;;;;4219213;28;20031;-61
2022/11/15 01:21:35;;;;;;;8.23;5.65;;;11.10;99.90;;;;;;4214913;28;20071;-62
2022/11/15 01:23:36;;;;;;;9.77;6.45;;;11.10;99.90;;;;;;4218841;28;20043;-62
2022/11/15 01:25:37;;;;;;;7.47;5.40;;;11.10;99.90;;;;;;4222897;28;20143;-62
2022/11/15 01:27:37;;;;;;;8.63;5.75;;;11.10;99.90;;;;;;4218462;28;20020;-64
2022/11/15 01:29:38;;;;;;;9.27;5.47;;;11.10;99.90;;;;;;4219330;28;20035;-63
2022/11/15 01:31:38;;;;;;;7.88;5.35;;;11.20;99.90;;;;;;4217451;28;20032;-62
2022/11/15 01:33:39;;;;;;;8.18;5.15;;;11.20;99.90;;;;;;4217975;28;20066;-62
2022/11/15 01:35:40;;;;;;;7.38;5.20;;;11.20;99.90;;;;;;4217262;28;20032;-62
2022/11/15 01:37:40;;;;;;;9.15;5.10;;;11.20;99.90;;;;;;4221164;28;20107;-61
2022/11/15 01:39:41;;;;;;;9.77;5.70;;;11.20;99.90;;;;;;4221065;28;20048;-61
2022/11/15 01:41:41;;;;;;;9.00;5.72;;;11.30;99.90;;;;;;4220334;28;20028;-62
2022/11/15 01:43:42;;;;;;;11.40;6.07;;;11.30;99.90;;;;;;4222824;28;20030;-62
2022/11/15 01:45:50;;;;;;;8.05;5.25;;;11.30;99.90;;;;;;4226612;28;20032;-62
2022/11/15 01:47:55;;;;;;;9.18;5.68;;;11.30;99.90;;;;;;4227504;28;20051;-61
2022/11/15 01:50:02;;;;;;;10.15;6.03;;;11.30;99.90;;;;;;4224265;28;20032;-65
2022/11/15 01:52:06;;;;;;;9.90;6.00;;;11.30;99.90;;;;;;4218873;28;20126;-62
2022/11/15 01:54:14;;;;;;;9.75;5.13;;;11.30;99.90;;;;;;4220084;28;20491;-61
2022/11/15 01:56:24;;;;;;;7.95;5.20;;;11.40;99.90;;;;;;4219743;28;20592;-62
2022/11/15 01:58:24;;;;;;;7.68;5.25;;;11.40;99.90;;;;;;4221468;28;20055;-62
2022/11/15 02:00:25;;;;;;;10.02;5.90;;;11.40;99.90;;;;;;4218628;28;20035;-62
2022/11/15 02:02:26;;;;;;;10.48;5.78;;;11.40;99.90;;;;;;4221637;28;20394;-66
2022/11/15 02:04:30;;;;;;;8.70;5.68;;;11.40;99.90;;;;;;4221747;28;20036;-62
2022/11/15 02:06:30;;;;;;;9.98;5.20;;;11.40;99.90;;;;;;4216526;28;20070;-62
2022/11/15 02:08:31;;;;;;;9.15;5.57;;;11.40;99.90;;;;;;4222537;28;20036;-62
2022/11/15 02:10:31;;;;;;;8.80;5.03;;;11.50;99.90;;;;;;4221247;28;20027;-62
2022/11/15 02:12:32;;;;;;;8.60;5.63;;;11.50;99.90;;;;;;4215045;28;20040;-62
2022/11/15 02:14:34;;;;;;;8.48;5.88;;;11.50;99.90;;;;;;4221757;28;20035;-61
2022/11/15 02:17:02;;;;;;;8.25;5.55;;;11.50;99.90;;;;;;4213673;28;20384;-62
2022/11/15 02:19:32;;;;;;;6.97;4.88;;;11.50;99.90;;;;;;4220632;28;20119;-62
2022/11/15 02:22:05;;;;;;;6.50;4.88;;;11.50;99.90;;;;;;4220361;28;20024;-62
2022/11/15 02:24:36;;;;;;;7.30;4.88;;;11.60;99.90;;;;;;4220033;28;20031;-62
2022/11/15 02:27:14;;;;;;;12.45;4.97;;;11.60;99.90;;;;;;4213186;28;20028;-62
2022/11/15 02:29:40;;;;;;;7.22;5.07;;;11.60;99.90;;;;;;4202697;28;20032;-62
2022/11/15 02:32:05;;;;;;;8.35;5.55;;;11.60;99.90;;;;;;4216135;28;20453;-62
2022/11/15 02:34:30;;;;;;;7.72;5.55;;;11.60;99.90;;;;;;4221626;28;20036;-62
2022/11/15 02:36:43;;;;;;;10.68;5.55;;;11.70;99.90;;;;;;4214530;28;20054;-62
2022/11/15 02:38:53;;;;;;;9.60;5.40;;;11.70;99.90;;;;;;4220680;28;20035;-62
2022/11/15 02:41:08;;;;;;;10.25;5.68;;;11.70;99.90;;;;;;4215826;28;20035;-62
2022/11/15 02:45:39;;;;;;;8.52;5.43;;;11.70;99.90;;;;;;4220059;28;20483;-62
2022/11/15 02:47:45;;;;;;;9.18;5.03;;;11.70;99.90;;;;;;4221836;28;20036;-62
2022/11/15 02:49:49;;;;;;;6.18;4.82;;;11.70;99.90;;;;;;4218291;28;20483;-62
2022/11/15 02:51:52;;;;;;;7.90;5.22;;;11.80;99.90;;;;;;4218956;28;20023;-62
2022/11/15 02:53:52;;;;;;;8.25;5.40;;;11.80;99.90;;;;;;4216518;28;20442;-62
2022/11/15 02:55:54;;;;;;;6.80;5.13;;;11.80;99.90;;;;;;4216542;28;20318;-61
2022/11/15 02:58:09;;;;;;;10.27;5.47;;;11.80;99.90;;;;;;4222502;28;20092;-61
2022/11/15 03:00:34;;;;;;;7.53;4.88;;;11.80;99.90;;;;;;4217894;28;20498;-65
2022/11/15 03:03:01;;;;;;;7.68;4.95;;;11.80;99.90;;;;;;4219295;28;20036;-61
2022/11/15 03:05:10;;;;;;;7.00;4.53;;;11.90;99.90;;;;;;4217019;28;20081;-62
2022/11/15 03:07:47;;;;;;;7.90;5.13;;;11.90;99.90;;;;;;4221068;28;20035;-62
2022/11/15 03:09:56;;;;;;;7.22;4.53;;;11.90;99.90;;;;;;4210645;28;20136;-62
2022/11/15 03:12:13;;;;;;;7.80;5.00;;;11.90;99.90;;;;;;4218153;28;20052;-62
2022/11/15 03:14:41;;;;;;;17.52;5.25;;;11.90;99.90;;;;;;4221313;28;20043;-62
2022/11/15 03:16:55;;;;;;;6.13;4.47;;;11.90;99.90;;;;;;4200119;28;20044;-62
2022/11/15 03:19:04;;;;;;;9.73;5.00;;;11.90;99.90;;;;;;4196532;28;20074;-61
2022/11/15 03:21:08;;;;;;;6.88;4.45;;;11.90;99.90;;;;;;4205927;28;20047;-62
2022/11/15 03:23:10;;;;;;;7.72;4.63;;;11.90;99.90;;;;;;4209385;28;20479;-62
2022/11/15 03:25:17;;;;;;;8.52;4.28;;;11.90;99.90;;;;;;4198734;28;20510;-63
2022/11/15 03:27:21;;;;;;;9.18;5.05;;;11.90;99.90;;;;;;4198308;28;20119;-62
2022/11/15 03:29:25;;;;;;;7.07;4.72;;;11.90;99.90;;;;;;4201272;28;20115;-61
2022/11/15 03:31:48;;;;;;;6.13;4.32;;;12.00;99.90;;;;;;4203783;28;20068;-62
2022/11/15 03:33:53;;;;;;;8.15;4.85;;;12.00;99.90;;;;;;4195647;28;20040;-61
2022/11/15 03:35:55;;;;;;;7.85;5.00;;;12.00;99.90;;;;;;4201527;28;20047;-61
2022/11/15 03:38:21;;;;;;;6.47;4.30;;;12.00;99.90;;;;;;4199811;28;20043;-62
2022/11/15 03:40:31;;;;;;;9.73;4.70;;;12.00;99.90;;;;;;4197756;28;20035;-62
2022/11/15 03:42:58;;;;;;;9.23;4.80;;;12.10;99.90;;;;;;4204380;28;20028;-62
2022/11/15 03:45:07;;;;;;;11.13;4.70;;;12.10;99.90;;;;;;4203931;28;20119;-63
2022/11/15 03:47:21;;;;;;;8.95;5.20;;;12.10;99.90;;;;;;4200405;28;20102;-61
2022/11/15 03:49:29;;;;;;;7.22;4.75;;;12.10;99.90;;;;;;4203866;28;20443;-62
2022/11/15 03:51:30;;;;;;;8.57;4.38;;;12.10;99.90;;;;;;4200522;28;20040;-62
2022/11/15 03:53:31;;;;;;;7.28;4.97;;;12.10;99.90;;;;;;4200067;28;20097;-62
2022/11/15 03:55:32;;;;;;;7.10;4.32;;;12.10;99.90;;;;;;4202228;28;20036;-61
2022/11/15 03:57:33;;;;;;;7.85;5.07;;;12.20;99.90;;;;;;4199351;28;20159;-62
2022/11/15 03:59:34;;;;;;;8.23;4.50;;;12.20;99.90;;;;;;4203039;28;20052;-61
2022/11/15 04:01:34;;;;;;;8.95;4.90;;;12.20;99.90;;;;;;4194935;28;20024;-62
2022/11/15 04:03:35;;;;;;;8.23;4.82;;;12.20;99.90;;;;;;4204238;28;20082;-61
2022/11/15 04:05:35;;;;;;;10.30;5.60;;;12.30;99.90;;;;;;4199686;28;20103;-62
2022/11/15 04:07:36;;;;;;;7.97;5.03;;;12.30;99.90;;;;;;4197669;28;20468;-62
2022/11/15 04:11:56;;;;;;;7.05;4.95;;;12.30;99.90;;;;;;4201029;28;20028;-62
2022/11/15 04:13:56;;;;;;;8.15;5.03;;;12.30;99.90;;;;;;4199904;28;20032;-62
2022/11/15 04:15:57;;;;;;;6.65;4.55;;;12.30;99.90;;;;;;4207518;28;20124;-62
2022/11/15 04:17:58;;;;;;;5.88;4.53;;;12.30;99.90;;;;;;4209021;28;20032;-62
2022/11/15 04:24:37;;;;;;;6.20;4.32;;;12.40;99.90;;;;;;4198309;28;20032;-62
2022/11/15 04:26:37;;;;;;;8.55;4.75;;;12.40;99.90;;;;;;4203582;28;20063;-62
2022/11/15 04:30:59;;;;;;;8.07;4.72;;;12.40;99.90;;;;;;4163539;28;20047;-63
2022/11/15 04:32:59;;;;;;;7.80;5.20;;;12.40;99.90;;;;;;4200453;28;20036;-62
2022/11/15 04:35:00;;;;;;;6.93;4.45;;;12.40;99.90;;;;;;4195911;28;20087;-62
2022/11/15 04:37:13;;;;;;;6.55;4.97;;;12.40;99.90;;;;;;4201656;28;20036;-63
2022/11/15 04:39:13;;;;;;;9.00;5.13;;;12.50;99.90;;;;;;4206748;28;20119;-62
2022/11/15 04:41:14;;;;;;;8.75;5.38;;;12.40;99.90;;;;;;4214512;28;20036;-62
2022/11/15 04:43:14;;;;;;;7.28;4.88;;;12.50;99.90;;;;;;4211479;28;20096;-62
2022/11/15 04:45:15;;;;;;;7.35;5.18;;;12.50;99.90;;;;;;4214457;28;20044;-62
2022/11/15 04:47:16;;;;;;;7.07;4.78;;;12.50;99.90;;;;;;4219633;28;20040;-62
2022/11/15 04:49:16;;;;;;;7.22;4.88;;;12.50;99.90;;;;;;4217136;28;20402;-63
2022/11/15 04:51:17;;;;;;;5.90;4.43;;;12.50;99.90;;;;;;4200197;28;20133;-62
2022/11/15 04:53:18;;;;;;;7.78;5.60;;;12.40;99.90;;;;;;4203836;28;20033;-62
2022/11/15 04:55:19;;;;;;;8.13;4.90;;;12.50;99.90;;;;;;4204557;28;20117;-63
2022/11/15 04:57:20;;;;;;;6.03;4.65;;;12.40;99.90;;;;;;4202836;28;20041;-62
2022/11/15 04:59:20;;;;;;;8.15;4.90;;;12.40;99.90;;;;;;4205055;28;20032;-62
2022/11/15 05:01:21;;;;;;;7.80;5.40;;;12.50;99.90;;;;;;4204990;28;20044;-62
2022/11/15 05:05:41;;;;;;;6.25;4.93;;;12.50;99.90;;;;;;4201183;28;20036;-64
2022/11/15 05:07:42;;;;;;;6.70;4.70;;;12.40;99.90;;;;;;4200755;28;20024;-63
2022/11/15 05:09:42;;;;;;;8.18;5.47;;;12.40;99.90;;;;;;4211511;28;20466;-63
2022/11/15 05:11:43;;;;;;;6.40;5.03;;;12.40;99.90;;;;;;4204194;28;20123;-63
2022/11/15 05:13:44;;;;;;;9.82;5.13;;;12.40;99.90;;;;;;4199179;28;20029;-63
2022/11/15 05:15:44;;;;;;;6.85;5.05;;;12.40;99.90;;;;;;4206453;28;20059;-62
2022/11/15 05:17:45;;;;;;;6.82;4.72;;;12.40;99.90;;;;;;4200099;28;20043;-63
2022/11/15 05:19:45;;;;;;;6.95;4.43;;;12.40;99.90;;;;;;4203267;28;20040;-63
2022/11/15 05:21:47;;;;;;;6.28;4.32;;;12.40;99.90;;;;;;4202241;28;20028;-62
2022/11/15 05:23:47;;;;;;;6.55;4.28;;;12.40;99.90;;;;;;4199545;28;20028;-62
2022/11/15 05:25:48;;;;;;;8.07;4.85;;;12.50;99.90;;;;;;4201350;28;20119;-62
2022/11/15 05:27:49;;;;;;;6.45;4.47;;;12.50;99.90;;;;;;4204041;28;20506;-63
2022/11/15 05:29:49;;;;;;;5.95;4.60;;;12.50;99.90;;;;;;4206710;28;20051;-63
2022/11/15 05:31:50;;;;;;;6.35;4.25;;;12.50;99.90;;;;;;4203192;28;20043;-62
2022/11/15 05:33:51;;;;;;;6.78;4.78;;;12.50;99.90;;;;;;4201485;28;20029;-63
2022/11/15 05:36:17;;;;;;;8.52;4.43;;;12.50;99.90;;;;;;4197531;28;20032;-63
2022/11/15 05:38:18;;;;;;;7.05;4.93;;;12.50;99.90;;;;;;4213936;28;20055;-63
2022/11/15 05:40:18;;;;;;;6.68;4.10;;;12.50;99.90;;;;;;4214995;28;20040;-62
2022/11/15 05:42:19;;;;;;;7.88;4.78;;;12.50;99.90;;;;;;4221401;28;20058;-62
2022/11/15 05:44:23;;;;;;;6.88;4.43;;;12.40;99.90;;;;;;4201128;28;20523;-63
2022/11/15 05:46:23;;;;;;;5.82;4.05;;;12.50;99.90;;;;;;4216695;28;20039;-62
2022/11/15 05:48:24;;;;;;;5.90;4.18;;;12.40;99.90;;;;;;4209416;28;20161;-62
2022/11/15 05:50:25;;;;;;;5.95;4.25;;;12.40;99.90;;;;;;4216120;28;20030;-63
2022/11/15 05:52:31;;;;;;;7.13;3.92;;;12.40;99.90;;;;;;4219665;28;20034;-62
2022/11/15 05:54:33;;;;;;;8.68;4.45;;;12.50;99.90;;;;;;4217642;28;20487;-62
2022/11/15 05:56:33;;;;;;;6.60;4.38;;;12.40;99.90;;;;;;4195709;28;20492;-65
2022/11/15 05:58:35;;;;;;;7.10;4.75;;;12.40;99.90;;;;;;4207266;28;20067;-63
2022/11/15 06:00:36;;;;;;;5.82;4.28;;;12.40;99.90;;;;;;4212809;28;20043;-63
2022/11/15 06:02:36;;;;;;;7.63;4.53;;;12.40;99.90;;;;;;4205645;28;20483;-63
2022/11/15 06:04:37;;;;;;;6.03;4.50;;;12.40;99.90;;;;;;4206091;28;20024;-63
2022/11/15 06:06:37;;;;;;;7.13;4.60;;;12.40;99.90;;;;;;4204358;28;20066;-62
2022/11/15 06:08:38;;;;;;;6.70;4.72;;;12.40;99.90;;;;;;4203637;28;20062;-63
2022/11/15 06:10:39;;;;;;;7.72;5.05;;;12.40;99.90;;;;;;4201606;28;20087;-63
2022/11/15 06:12:39;;;;;;;8.35;4.97;;;12.40;99.90;;;;;;4204266;28;20028;-63
2022/11/15 06:14:40;;;;;;;6.57;4.53;;;12.40;99.90;;;;;;4203800;28;20114;-63
2022/11/15 06:16:40;;;;;;;6.90;4.60;;;12.40;99.90;;;;;;4198962;28;20530;-62
2022/11/15 06:18:41;;;;;;;6.57;4.20;;;12.40;99.90;;;;;;4206034;28;20554;-63
2022/11/15 06:20:41;;;;;;;6.45;4.20;;;12.40;99.90;;;;;;4218328;28;20032;-66
2022/11/15 06:22:42;;;;;;;6.43;4.20;;;12.40;99.90;;;;;;4215866;28;20040;-64
2022/11/15 06:24:43;;;;;;;7.40;4.53;;;12.40;99.90;;;;;;4220265;28;20050;-63
2022/11/15 06:26:44;;;;;;;6.85;4.43;;;12.40;99.90;;;;;;4196021;28;20165;-63
2022/11/15 06:28:44;;;;;;;8.00;4.28;;;12.40;99.90;;;;;;4214514;28;20059;-63
2022/11/15 06:30:45;;;;;;;8.63;4.50;;;12.50;99.90;;;;;;4212255;28;20035;-63
2022/11/15 06:32:46;;;;;;;4.80;4.10;;;12.40;99.90;;;;;;4194681;28;20119;-63
2022/11/15 06:34:46;;;;;;;7.55;4.35;;;12.40;99.90;;;;;;4216299;28;20667;-62
2022/11/15 06:36:47;;;;;;;7.65;4.05;;;12.40;99.90;;;;;;4211564;28;20149;-63
2022/11/15 06:38:48;;;;;;;8.50;3.83;;;12.40;99.90;;;;;;4214892;28;20032;-62
2022/11/15 06:40:48;;;;;;;8.27;4.60;;;12.50;99.90;;;;;;4213486;28;20040;-63
2022/11/15 06:42:49;;;;;;;6.38;3.67;;;12.50;99.90;;;;;;4215550;28;20059;-62
2022/11/15 06:44:49;;;;;;;7.85;4.90;;;12.50;99.90;;;;;;4215520;28;20035;-62
2022/11/15 06:46:50;;;;;;;6.43;3.95;;;12.50;99.90;;;;;;4205795;28;20020;-63
2022/11/15 06:48:52;;;;;;;5.65;3.72;;;12.50;99.90;;;;;;4215965;28;20128;-66
2022/11/15 06:50:54;;;;;;;6.45;4.40;;;12.50;99.90;;;;;;4216567;28;20043;-65
2022/11/15 06:52:55;;;;;;;4.97;3.72;;;12.50;99.90;;;;;;4217140;28;20051;-65
2022/11/15 06:54:55;;;;;;;6.05;3.70;;;12.50;99.90;;;;;;4213219;28;20047;-65
2022/11/15 06:56:56;;;;;;;5.95;3.72;;;12.50;99.90;;;;;;4214011;28;20066;-65
2022/11/15 06:58:56;;;;;;;6.35;4.18;;;12.50;99.90;;;;;;4213374;28;20619;-65
2022/11/15 07:01:05;;;;;;;5.38;3.55;;;12.50;99.90;;;;;;4213771;28;20040;-65
2022/11/15 07:03:06;;;;;;;3.92;3.30;;;12.50;99.90;;;;;;4213252;28;20395;-65
2022/11/15 07:05:07;;;;;;;5.75;4.03;;;12.60;99.90;;;;;;4210881;28;20036;-65
2022/11/15 07:07:07;;;;;;;4.53;3.28;;;12.50;99.90;;;;;;4213428;28;20081;-66
2022/11/15 07:09:08;;;;;;;7.45;3.63;;;12.50;99.90;;;;;;4213872;28;20123;-65
2022/11/15 07:11:09;;;;;;;6.18;3.42;;;12.60;99.90;;;;;;4210980;28;20044;-64
2022/11/15 07:13:10;;;;;;;5.70;4.00;;;12.50;99.90;;;;;;4215857;28;20088;-65
2022/11/15 07:15:10;;;;;;;5.22;3.55;;;12.50;99.90;;;;;;4195157;28;20488;-65
2022/11/15 07:17:11;;;;;;;5.00;3.40;;;12.50;99.90;;;;;;4192583;28;20040;-65
2022/11/15 07:19:11;;;;;;;5.57;3.45;;;12.50;99.90;;;;;;4208090;28;20036;-66
2022/11/15 07:21:12;;;;;;;4.43;3.28;;;12.50;99.90;;;;;;4197495;28;20097;-65
2022/11/15 07:23:13;;;;;;;6.30;3.80;;;12.50;99.90;;;;;;4211621;28;20049;-66
2022/11/15 07:25:13;;;;;;;7.32;3.60;;;12.50;99.90;;;;;;4209757;28;20032;-66
2022/11/15 07:27:14;;;;;;;5.38;3.50;;;12.50;99.90;;;;;;4211969;28;20479;-65
2022/11/15 07:29:14;;;;;;;6.80;3.63;;;12.50;99.90;;;;;;4204651;28;20032;-66
2022/11/15 07:31:15;;;;;;;5.78;3.25;;;12.50;99.90;;;;;;4192562;28;20028;-66
2022/11/15 07:33:16;;;;;;;6.85;3.58;;;12.50;99.90;;;;;;4199269;28;20119;-65
2022/11/15 07:35:16;;;;;;;4.13;2.97;;;12.50;99.90;;;;;;4191652;28;20433;-64
2022/11/15 07:37:17;;;;;;;5.60;2.35;;;12.50;99.90;;;;;;4210668;28;21532;-66
2022/11/15 07:39:18;;;;;;;3.65;2.50;;;12.50;99.90;;;;;;4191855;28;20032;-65
2022/11/15 07:41:18;;;;;;;2.22;1.85;;;12.50;99.90;;;;;;4210317;28;20043;-65
2022/11/15 07:43:19;;;;;;;2.45;2.00;;;12.40;99.90;;;;;;4198161;28;20033;-65
2022/11/15 07:45:20;;;;;;;5.05;1.90;;;12.40;99.90;;;;;;4190774;28;20106;-65
2022/11/15 07:47:21;;;;;;;2.35;1.50;;;12.50;99.90;;;;;;4192400;28;20055;-65
2022/11/15 07:49:22;;;;;;;2.42;1.60;;;12.40;99.90;;;;;;4203758;28;20055;-65
2022/11/15 07:51:22;;;;;;;2.67;1.80;;;12.50;99.90;;;;;;4212424;28;20059;-64
2022/11/15 07:53:23;;;;;;;3.20;2.00;;;12.50;99.90;;;;;;4213917;28;20098;-65
2022/11/15 07:55:25;;;;;;;3.88;1.98;;;12.50;99.90;;;;;;4213524;28;20043;-65
2022/11/15 07:57:26;;;;;;;3.63;1.73;;;12.50;99.90;;;;;;4211042;28;20043;-65
2022/11/15 07:59:26;;;;;;;2.25;1.58;;;12.50;99.90;;;;;;4212963;28;20035;-65
2022/11/15 08:01:27;;;;;;;2.97;1.88;;;12.50;99.90;;;;;;4205714;28;20037;-65
2022/11/15 08:03:27;;;;;;;3.35;1.80;;;12.50;99.90;;;;;;4213343;28;20106;-65
2022/11/15 08:05:29;;;;;;;2.55;1.88;;;12.50;99.90;;;;;;4209471;28;20186;-66
2022/11/15 08:07:31;;;;;;;4.17;1.97;;;12.50;99.90;;;;;;4198334;28;20048;-66
2022/11/15 08:09:31;;;;;;;5.38;2.00;;;12.50;99.90;;;;;;4212601;28;20398;-66
2022/11/15 08:11:32;;;;;;;2.63;1.95;;;12.50;99.90;;;;;;4210212;28;20033;-66
2022/11/15 08:13:32;;;;;;;4.22;1.83;;;12.50;99.90;;;;;;4196650;28;20450;-65
2022/11/15 08:15:35;;;;;;;2.60;1.25;;;12.40;99.90;;;;;;4209585;28;20040;-65
2022/11/15 08:17:35;;;;;;;3.35;1.42;;;12.30;99.90;;;;;;4210596;28;20455;-66
2022/11/15 08:19:36;;;;;;;2.15;1.30;;;12.30;99.90;;;;;;4212789;28;20077;-65
2022/11/15 08:21:37;;;;;;;2.47;1.08;;;12.30;99.90;;;;;;4211728;28;20031;-66
2022/11/15 08:23:37;;;;;;;2.88;1.35;;;12.30;99.90;;;;;;4216890;28;20043;-65
2022/11/15 08:25:38;;;;;;;2.47;1.23;;;12.30;99.90;;;;;;4214966;28;20549;-65
2022/11/15 08:27:39;;;;;;;1.23;0.93;;;12.30;99.90;;;;;;4215891;28;20379;-65
2022/11/15 08:29:47;;;;;;;2.63;1.00;;;12.30;99.90;;;;;;4215912;28;20028;-65
2022/11/15 08:31:47;;;;;;;1.50;0.88;;;12.30;99.90;;;;;;4211298;28;20032;-65
2022/11/15 08:33:48;;;;;;;2.45;1.30;;;12.30;99.90;;;;;;4216020;28;20058;-66
2022/11/15 08:35:48;;;;;;;2.75;1.25;;;12.30;99.90;;;;;;4214972;28;20031;-65
2022/11/15 08:37:49;;;;;;;6.38;1.23;;;12.30;99.90;;;;;;4214886;28;20050;-65
2022/11/15 08:39:50;;;;;;;4.35;1.33;;;12.30;99.90;;;;;;4216228;28;20046;-65
2022/11/15 08:41:50;;;;;;;1.02;0.88;;;12.30;99.90;;;;;;4216952;28;20116;-65
2022/11/15 08:43:51;;;;;;;2.75;1.20;;;12.30;99.90;;;;;;4196427;28;20060;-66
2022/11/15 08:45:51;;;;;;;1.77;0.85;;;12.40;99.90;;;;;;4214712;28;20093;-66
2022/11/15 08:47:52;;;;;;;2.03;1.05;;;12.40;99.90;;;;;;4214439;28;20066;-66
2022/11/15 08:49:53;;;;;;;1.67;1.00;;;12.40;99.90;;;;;;4214789;28;20056;-65
2022/11/15 08:51:53;;;;;;;1.65;1.10;;;12.40;99.90;;;;;;4215579;28;20115;-66
2022/11/15 08:53:54;;;;;;;2.28;1.10;;;12.50;99.90;;;;;;4215880;28;20495;-66
2022/11/15 08:55:54;;;;;;;1.73;1.23;;;12.50;99.90;;;;;;4214919;28;20039;-66
2022/11/15 08:57:57;;;;;;;3.22;1.35;;;12.50;99.90;;;;;;4217385;28;20042;-66
2022/11/15 08:59:58;;;;;;;1.40;1.10;;;12.60;99.90;;;;;;4199953;28;20376;-66
2022/11/15 09:01:58;;;;;;;1.27;0.95;;;12.60;99.90;;;;;;4215422;28;20089;-66
2022/11/15 09:03:59;;;;;;;2.75;1.10;;;12.70;99.90;;;;;;4216259;28;20070;-66
2022/11/15 09:06:00;;;;;;;3.40;1.35;;;12.80;99.90;;;;;;4214151;28;20110;-66
2022/11/15 09:08:01;;;;;;;1.83;1.08;;;12.90;99.90;;;;;;4216547;28;20118;-65
2022/11/15 09:10:02;;;;;;;2.47;1.00;;;13.00;99.90;;;;;;4215948;28;20044;-66
2022/11/15 09:12:03;;;;;;;2.13;0.80;;;13.10;99.90;;;;;;4215891;28;20040;-66
2022/11/15 09:14:04;;;;;;;2.22;1.10;;;13.30;99.90;;;;;;4215000;28;20040;-67
2022/11/15 09:16:05;;;;;;;1.98;1.10;;;13.40;99.90;;;;;;4214627;28;20469;-66
2022/11/15 09:18:06;;;;;;;1.27;0.73;;;13.40;99.90;;;;;;4214272;28;20040;-66
2022/11/15 09:20:07;;;;;;;2.10;1.23;;;13.50;99.90;;;;;;4206416;28;20036;-66
2022/11/15 09:22:08;;;;;;;2.20;1.30;;;13.50;99.90;;;;;;4215685;28;20490;-66
2022/11/15 09:24:08;;;;;;;1.55;0.93;;;13.60;99.90;;;;;;4216462;28;20032;-66
2022/11/15 09:26:09;;;;;;;1.42;0.98;;;13.70;99.90;;;;;;4216606;28;20028;-67
2022/11/15 09:28:10;;;;;;;2.85;1.00;;;13.70;99.90;;;;;;4214840;28;20050;-67
2022/11/15 09:30:10;;;;;;;3.05;0.75;;;13.80;99.90;;;;;;4213357;28;20039;-67
2022/11/15 09:32:11;;;;;;;1.30;0.88;;;13.80;99.90;;;;;;4216079;28;20035;-66
2022/11/15 09:34:12;;;;;;;1.08;0.77;;;13.80;99.90;;;;;;4214711;28;20063;-66
2022/11/15 09:36:13;;;;;;;1.98;0.95;;;13.80;99.90;;;;;;4214434;28;20406;-66
2022/11/15 09:38:13;;;;;;;1.25;1.05;;;13.90;99.90;;;;;;4216098;28;20032;-66
2022/11/15 09:40:17;;;;;;;2.40;1.10;;;13.90;99.90;;;;;;4215721;28;20036;-66
2022/11/15 09:42:55;;;;;;;2.22;1.23;;;13.90;99.90;;;;;;4215122;28;20398;-66
2022/11/15 09:45:06;;;;;;;2.67;1.40;;;13.90;99.90;;;;;;4213161;28;20041;-67
2022/11/15 09:47:37;;;;;;;2.45;1.45;;;14.00;99.90;;;;;;4215420;28;20035;-67
2022/11/15 09:49:38;;;;;;;1.83;1.05;;;14.00;99.90;;;;;;4216556;28;20040;-66
2022/11/15 09:51:46;;;;;;;1.90;1.10;;;13.90;99.90;;;;;;4214353;28;20036;-67
2022/11/15 09:54:15;;;;;;;2.47;1.10;;;13.90;99.90;;;;;;4215912;28;20093;-67
2022/11/15 09:56:25;;;;;;;3.30;1.20;;;13.90;99.90;;;;;;4212300;28;20052;-67
2022/11/15 09:58:42;;;;;;;2.38;1.27;;;13.90;99.90;;;;;;4212828;28;20038;-66
2022/11/15 10:00:48;;;;;;;2.30;0.85;;;13.90;99.90;;;;;;4214053;28;20379;-66
2022/11/15 10:03:15;;;;;;;1.65;0.70;;;13.90;99.90;;;;;;4216020;28;20028;-66
2022/11/15 10:05:19;;;;;;;1.60;0.98;;;13.90;99.90;;;;;;4213964;28;20059;-67
2022/11/15 10:07:57;;;;;;;3.67;1.23;;;13.90;99.90;;;;;;4213365;28;20462;-66
2022/11/15 10:10:35;;;;;;;2.28;0.80;;;14.00;99.90;;;;;;4213157;28;20950;-66
2022/11/15 10:12:35;;;;;;;2.08;0.98;;;14.00;99.90;;;;;;4195178;28;20074;-67
2022/11/15 10:14:36;;;;;;;1.73;0.93;;;14.00;99.90;;;;;;4213121;28;20040;-67
2022/11/15 10:17:10;;;;;;;3.70;0.95;;;14.00;99.90;;;;;;4211817;28;20123;-67
2022/11/15 10:19:23;;;;;;;4.20;1.13;;;14.10;99.90;;;;;;4213154;28;20383;-66
2022/11/15 10:21:37;;;;;;;2.67;1.23;;;14.10;99.90;;;;;;4217009;28;20040;-66
2022/11/15 10:23:38;;;;;;;1.58;1.00;;;14.10;99.90;;;;;;4213661;28;20092;-67
2022/11/15 10:25:39;;;;;;;1.92;1.10;;;14.10;99.90;;;;;;4211776;28;20082;-66
2022/11/15 10:27:41;;;;;;;3.63;1.00;;;14.20;99.90;;;;;;4215482;28;20403;-67
2022/11/15 10:29:47;;;;;;;1.92;1.15;;;14.20;99.90;;;;;;4213183;28;20039;-66
2022/11/15 10:31:48;;;;;;;3.22;1.40;;;14.20;99.90;;;;;;4214705;28;20434;-67
2022/11/15 10:33:49;;;;;;;1.75;1.20;;;14.30;99.90;;;;;;4214411;28;20028;-66
2022/11/15 10:36:09;;;;;;;4.32;1.58;;;14.40;99.90;;;;;;4213543;28;20074;-67
2022/11/15 10:38:11;;;;;;;4.50;1.20;;;14.40;99.90;;;;;;4215426;28;20023;-67
2022/11/15 10:40:19;;;;;;;2.15;1.45;;;14.50;99.90;;;;;;4213351;28;20035;-67
2022/11/15 10:42:27;;;;;;;2.65;1.60;;;14.40;99.90;;;;;;4215102;28;20035;-66
2022/11/15 10:44:32;;;;;;;2.42;1.33;;;14.40;99.90;;;;;;4197543;28;20118;-67
2022/11/15 10:46:37;;;;;;;2.40;1.20;;;14.50;99.90;;;;;;4213215;28;20043;-66
2022/11/15 10:48:38;;;;;;;4.75;1.33;;;14.50;99.90;;;;;;4213855;28;20034;-67
2022/11/15 10:50:44;;;;;;;3.45;1.42;;;14.40;99.90;;;;;;4213059;28;20028;-66
2022/11/15 10:52:46;;;;;;;2.65;1.05;;;14.40;99.90;;;;;;4212512;28;20028;-67
2022/11/15 10:54:51;;;;;;;3.95;1.52;;;14.40;99.90;;;;;;4214950;28;20028;-67
2022/11/15 10:56:55;;;;;;;3.03;1.50;;;14.40;99.90;;;;;;4212716;28;20092;-66
2022/11/15 10:58:57;;;;;;;2.33;1.20;;;14.30;99.90;;;;;;4214563;28;20042;-67